Main page
METAR-TAF:

METAR-TAF

Airports :

Dax, France

Aérodrome de Dax - Seyresse

latitude: 43-41N, longitude: 001-04W, elevation: 32 m

Current weather observation

The report was made 16 minutes ago, at 16:30 UTC
Wind 5 kt from the Northwest, varying between West and North
Temperature 24°C
Humidity 57%
Pressure 1017 hPa
Visibility 10 km or more
Few clouds at a height of 3700 ft

METAR: LFBY 221630Z AUTO 31005KT 260V350 9999 // FEW037 24/15 Q1017

Time: 18:46 (16:46 UTC)

Forecast

The report was made 32 hours and 46 minutes ago, at 08:00 UTC
Forecast valid from 21 at 09 UTC to 21 at 18 UTC
Wind 5 kt from the North/Northeast
Visibility 10 km or more
Broken clouds at a height of 3000 ft
Temporary
from 21 at 09 UTC to 21 at 11 UTC
Visibility: 5000 m
light rain showers

TAF: LFBY 210800Z 2109/2118 02005KT 9999 BKN030 TEMPO 2109/2111 5000 -SHRA

Weather observations and forecasts of more than 4000 airports (METAR and TAF reports).

The available stations are represented by yellow and red dots on the map.

Hover mouse over dot to see the name of the station.

Then click to see weather observations and forecasts.

To change the map : click on the green buttons with a black cross to zoom in, on the green button with a dash to zoom out, or on the green arrows for adjacent maps.


METAR-TAF: